createdAt,value
2024-02-29T00:03:28.655Z,6.18
2024-02-29T00:08:30.302Z,5.90
2024-02-29T00:13:32.331Z,6.05
2024-02-29T00:18:34.151Z,6.32
2024-02-29T00:23:36.045Z,6.43
2024-02-29T00:28:37.714Z,6.47
2024-02-29T00:33:40.985Z,5.60
2024-02-29T00:38:42.705Z,6.63
2024-02-29T00:43:44.853Z,6.25
2024-02-29T00:48:46.570Z,5.00
2024-02-29T00:53:48.396Z,6.00
2024-02-29T00:58:50.609Z,6.22
2024-02-29T01:03:52.238Z,6.72
2024-02-29T01:08:53.959Z,6.97
2024-02-29T01:13:55.602Z,5.90
2024-02-29T01:18:58.276Z,6.38
2024-02-29T01:24:00.418Z,6.82
2024-02-29T01:29:02.195Z,6.88
2024-02-29T01:34:04.275Z,6.85
2024-02-29T01:39:05.929Z,6.78
2024-02-29T01:44:07.572Z,6.85
2024-02-29T01:49:10.194Z,5.75
2024-02-29T01:54:12.223Z,6.35
2024-02-29T01:59:15.084Z,7.10
2024-02-29T02:04:17.510Z,6.93
2024-02-29T02:09:19.187Z,6.72
2024-02-29T02:14:20.865Z,6.32
2024-02-29T02:19:22.481Z,6.43
2024-02-29T02:24:25.473Z,7.43
2024-02-29T02:29:27.248Z,6.88
2024-02-29T02:34:28.862Z,6.65
2024-02-29T02:39:30.613Z,6.55
2024-02-29T02:44:32.269Z,5.47
2024-02-29T02:49:33.923Z,5.80
2024-02-29T02:54:35.565Z,6.25
2024-02-29T02:59:37.360Z,6.40
2024-02-29T03:04:39.063Z,7.20
2024-02-29T03:09:40.881Z,5.95
2024-02-29T03:14:42.640Z,6.25
2024-02-29T03:19:44.324Z,6.57
2024-02-29T03:24:46.999Z,6.40
2024-02-29T03:29:48.711Z,7.57
2024-02-29T03:34:50.711Z,6.57
2024-02-29T03:39:52.349Z,6.38
2024-02-29T03:44:57.706Z,6.85
2024-02-29T03:49:59.954Z,6.45
2024-02-29T03:55:01.633Z,6.40
2024-02-29T04:00:04.312Z,6.28
2024-02-29T04:05:06.999Z,6.45
2024-02-29T04:10:09.717Z,7.03
2024-02-29T04:15:11.745Z,6.95
2024-02-29T04:20:13.468Z,6.78
2024-02-29T04:25:17.369Z,6.63
2024-02-29T04:30:19.414Z,6.15
2024-02-29T04:35:21.866Z,7.38
2024-02-29T04:40:23.548Z,7.22
2024-02-29T04:45:25.673Z,7.65
2024-02-29T04:50:27.333Z,6.57
2024-02-29T04:55:28.938Z,6.63
2024-02-29T05:00:30.553Z,6.40
2024-02-29T05:05:32.190Z,6.88
2024-02-29T05:10:34.328Z,6.68
2024-02-29T05:15:37.189Z,6.40
2024-02-29T05:20:39.008Z,6.25
2024-02-29T05:25:41.059Z,5.13
2024-02-29T05:30:43.906Z,5.88
2024-02-29T05:35:51.759Z,5.60
2024-02-29T05:45:55.097Z,4.45
2024-02-29T05:50:57.460Z,4.65
2024-02-29T05:55:59.142Z,4.43
2024-02-29T06:01:01.273Z,4.85
2024-02-29T06:06:03.167Z,4.28
2024-02-29T06:11:04.901Z,4.80
2024-02-29T06:16:07.094Z,4.97
2024-02-29T06:21:08.979Z,4.43
2024-02-29T06:26:10.694Z,4.45
2024-02-29T06:31:12.354Z,4.15
2024-02-29T06:36:14.295Z,5.53
2024-02-29T06:41:16.005Z,4.10
2024-02-29T06:46:18.173Z,4.82
2024-02-29T06:51:19.938Z,4.70
2024-02-29T06:56:21.753Z,4.95
2024-02-29T07:01:24.251Z,3.83
2024-02-29T07:06:26.488Z,5.00
2024-02-29T07:11:29.635Z,4.47
2024-02-29T07:16:33.919Z,5.35
2024-02-29T07:21:37.114Z,4.20
2024-02-29T07:26:44.811Z,4.10
2024-02-29T07:31:46.511Z,4.50
2024-02-29T07:36:49.948Z,4.10
2024-02-29T07:41:51.770Z,4.53
2024-02-29T07:46:53.499Z,4.85
2024-02-29T07:51:56.373Z,4.20
2024-02-29T07:56:58.930Z,5.65
2024-02-29T08:02:00.729Z,5.30
2024-02-29T08:07:02.496Z,4.55
2024-02-29T08:12:04.591Z,5.00
2024-02-29T08:17:06.235Z,5.40
2024-02-29T08:22:08.008Z,5.82
2024-02-29T08:27:09.746Z,5.35
2024-02-29T08:32:15.552Z,5.70
2024-02-29T08:37:17.650Z,5.68
2024-02-29T08:42:19.796Z,5.03
2024-02-29T08:47:21.442Z,4.90
2024-02-29T08:52:23.265Z,6.45
2024-02-29T08:57:24.914Z,5.75
2024-02-29T09:02:26.649Z,5.72
2024-02-29T09:07:28.840Z,5.63
2024-02-29T09:12:30.636Z,6.07
2024-02-29T09:17:32.434Z,6.03
2024-02-29T09:22:34.189Z,5.43
2024-02-29T09:27:35.864Z,6.63
2024-02-29T09:32:37.615Z,6.97
2024-02-29T09:37:39.347Z,6.53
2024-02-29T09:42:41.250Z,5.65
2024-02-29T09:47:46.080Z,5.05
2024-02-29T09:52:52.810Z,6.13
2024-02-29T09:57:55.534Z,5.37
2024-02-29T10:03:01.752Z,6.40
2024-02-29T10:08:06.758Z,6.03
2024-02-29T10:13:09.766Z,4.93
2024-02-29T10:18:12.217Z,5.68
2024-02-29T10:23:15.934Z,5.40
2024-02-29T10:28:20.271Z,6.15
2024-02-29T10:33:28.854Z,6.80
2024-02-29T10:38:30.563Z,6.53
2024-02-29T10:43:33.103Z,7.10
2024-02-29T10:48:52.253Z,7.00
2024-02-29T10:54:09.325Z,5.70
2024-02-29T10:59:13.552Z,4.20
2024-02-29T11:04:18.809Z,6.47
2024-02-29T11:09:26.459Z,5.65
2024-02-29T11:14:38.444Z,6.93
2024-02-29T11:19:48.240Z,6.60
2024-02-29T11:24:56.646Z,6.13
2024-02-29T11:30:02.632Z,6.65
2024-02-29T11:35:05.274Z,6.22
2024-02-29T11:40:08.713Z,6.55
2024-02-29T11:45:20.418Z,6.47
2024-02-29T11:50:22.566Z,6.45
2024-02-29T11:55:25.111Z,6.28
2024-02-29T12:00:29.346Z,5.40
2024-02-29T12:05:32.556Z,6.72
2024-02-29T12:10:35.341Z,5.43
2024-02-29T12:15:38.710Z,5.40
2024-02-29T12:20:41.210Z,5.38
2024-02-29T12:25:46.606Z,5.18
2024-02-29T12:30:50.192Z,4.18
2024-02-29T12:35:52.704Z,4.55
2024-02-29T12:40:56.020Z,4.57
2024-02-29T12:45:58.372Z,4.90
2024-02-29T12:51:00.763Z,4.40
2024-02-29T12:56:04.637Z,3.92
2024-02-29T13:01:08.440Z,4.20
2024-02-29T13:06:11.549Z,4.65
2024-02-29T13:11:13.800Z,5.13
2024-02-29T13:16:16.067Z,4.60
2024-02-29T13:21:18.235Z,4.30
2024-02-29T13:26:20.643Z,4.53
2024-02-29T13:31:23.495Z,4.25
2024-02-29T13:36:26.006Z,4.70
2024-02-29T13:41:30.336Z,4.88
2024-02-29T13:46:32.921Z,4.60
2024-02-29T13:51:35.301Z,4.38
2024-02-29T13:56:37.472Z,4.65
2024-02-29T14:01:39.775Z,4.90
2024-02-29T14:06:42.066Z,4.68
2024-02-29T14:11:45.246Z,4.93
2024-02-29T14:16:47.409Z,4.25
2024-02-29T14:21:49.173Z,5.13
2024-02-29T14:26:52.849Z,5.80
2024-02-29T14:31:54.627Z,5.25
2024-02-29T14:36:56.712Z,4.78
2024-02-29T14:41:58.624Z,5.15
2024-02-29T14:47:00.353Z,5.00
2024-02-29T14:52:02.100Z,4.30
2024-02-29T14:57:04.129Z,4.95
2024-02-29T15:02:09.273Z,5.18
2024-02-29T15:07:12.538Z,4.97
2024-02-29T15:12:14.419Z,5.10
2024-02-29T15:17:16.401Z,4.47
2024-02-29T15:22:18.251Z,5.20
2024-02-29T15:27:20.716Z,5.90
2024-02-29T15:32:23.666Z,5.13
2024-02-29T15:37:27.618Z,5.65
2024-02-29T15:42:29.353Z,5.45
2024-02-29T15:47:31.027Z,5.63
2024-02-29T15:52:32.981Z,5.35
2024-02-29T15:57:38.110Z,5.80
2024-02-29T16:02:40.182Z,5.22
2024-02-29T16:07:41.852Z,6.00
2024-02-29T16:12:43.763Z,5.75
2024-02-29T16:17:45.604Z,6.05
2024-02-29T16:22:47.845Z,6.20
2024-02-29T16:27:52.002Z,6.07
2024-02-29T16:32:53.705Z,6.15
2024-02-29T16:37:57.157Z,5.93
2024-02-29T16:43:00.341Z,4.47
2024-02-29T16:48:02.423Z,6.15
2024-02-29T16:53:06.090Z,4.65
2024-02-29T16:58:08.316Z,5.60
2024-02-29T17:03:10.439Z,5.38
2024-02-29T17:08:12.066Z,6.20
2024-02-29T17:13:14.615Z,5.70
2024-02-29T17:18:16.848Z,4.90
2024-02-29T17:23:18.637Z,5.55
2024-02-29T17:28:20.337Z,5.10
2024-02-29T17:33:22.159Z,4.20
2024-02-29T17:38:24.475Z,5.50
2024-02-29T17:43:26.870Z,5.38
2024-02-29T17:48:28.895Z,5.28
2024-02-29T17:53:30.543Z,7.22
2024-02-29T17:58:32.452Z,4.57
2024-02-29T18:03:34.430Z,4.00
2024-02-29T18:08:36.171Z,4.30
2024-02-29T18:13:38.190Z,5.45
2024-02-29T18:18:41.745Z,4.28
2024-02-29T18:23:43.774Z,4.05
2024-02-29T18:28:45.695Z,5.70
2024-02-29T18:33:47.715Z,5.35
2024-02-29T18:38:49.897Z,4.47
2024-02-29T18:43:51.984Z,4.50
2024-02-29T18:48:54.041Z,3.95
2024-02-29T18:53:56.049Z,4.90
2024-02-29T18:58:58.848Z,4.68
2024-02-29T19:04:01.353Z,3.90
2024-02-29T19:09:03.578Z,5.28
2024-02-29T19:14:05.577Z,4.55
2024-02-29T19:19:08.979Z,3.95
2024-02-29T19:24:12.241Z,4.40
2024-02-29T19:29:13.890Z,5.15
2024-02-29T19:34:15.709Z,5.05
2024-02-29T19:39:17.665Z,4.63
2024-02-29T19:44:19.365Z,3.78
2024-02-29T19:49:20.998Z,4.78
2024-02-29T19:54:23.283Z,4.93
2024-02-29T19:59:24.968Z,5.13
2024-02-29T20:04:29.380Z,3.97
2024-02-29T20:09:31.560Z,4.75
2024-02-29T20:14:33.453Z,4.45
2024-02-29T20:19:37.413Z,5.35
2024-02-29T20:24:40.781Z,4.22
2024-02-29T20:29:44.518Z,4.60
2024-02-29T20:34:46.264Z,5.82
2024-02-29T20:39:47.916Z,5.50
2024-02-29T20:44:49.615Z,4.95
2024-02-29T20:49:51.912Z,5.20
2024-02-29T20:54:54.332Z,5.60
2024-02-29T20:59:56.186Z,5.28
2024-02-29T21:05:04.677Z,4.78
2024-02-29T21:10:06.714Z,4.75
2024-02-29T21:15:08.810Z,4.90
2024-02-29T21:20:11.936Z,6.65
2024-02-29T21:25:13.841Z,5.20
2024-02-29T21:30:15.972Z,5.35
2024-02-29T21:35:21.274Z,5.28
2024-02-29T21:40:23.076Z,5.90
2024-02-29T21:45:24.701Z,6.53
2024-02-29T21:50:26.326Z,6.00
2024-02-29T21:55:28.265Z,5.95
2024-02-29T22:00:29.913Z,5.80
2024-02-29T22:05:31.549Z,6.13
2024-02-29T22:10:33.372Z,5.65
2024-02-29T22:15:35.117Z,6.65
2024-02-29T22:20:36.845Z,6.45
2024-02-29T22:25:38.639Z,6.68
2024-02-29T22:30:40.289Z,7.57
2024-02-29T22:35:41.947Z,6.50
2024-02-29T22:40:43.604Z,6.88
2024-02-29T22:45:45.398Z,6.53
2024-02-29T22:50:47.929Z,6.22
2024-02-29T22:55:51.340Z,7.53
2024-02-29T23:00:54.477Z,6.93
2024-02-29T23:05:56.513Z,7.50
2024-02-29T23:10:58.957Z,7.32
2024-02-29T23:16:00.913Z,7.40
2024-02-29T23:21:02.745Z,8.00
2024-02-29T23:26:04.654Z,7.30
2024-02-29T23:31:06.590Z,7.40
2024-02-29T23:36:08.403Z,8.18
2024-02-29T23:41:10.159Z,7.10
2024-02-29T23:46:11.939Z,8.48
2024-02-29T23:51:13.865Z,8.18
2024-02-29T23:56:15.681Z,7.88
